sensor_id;sensor_type;location;lat;lon;timestamp;P1;durP1;ratioP1;P2;durP2;ratioP2
57443;SDS011;43289;52.962;6.196;2022-10-23T03:25:44;21.60;;;13.00;;
57443;SDS011;43289;52.962;6.196;2022-10-23T03:28:10;18.00;;;12.68;;
57443;SDS011;43289;52.962;6.196;2022-10-23T03:30:36;17.10;;;10.82;;
57443;SDS011;43289;52.962;6.196;2022-10-23T03:33:02;16.88;;;13.43;;
57443;SDS011;43289;52.962;6.196;2022-10-23T03:35:28;20.60;;;12.70;;
57443;SDS011;43289;52.962;6.196;2022-10-23T03:37:55;22.42;;;13.57;;
57443;SDS011;43289;52.962;6.196;2022-10-23T03:40:24;21.75;;;13.55;;
57443;SDS011;43289;52.962;6.196;2022-10-23T03:42:50;19.48;;;11.48;;
57443;SDS011;43289;52.962;6.196;2022-10-23T03:45:22;16.88;;;11.27;;
57443;SDS011;43289;52.962;6.196;2022-10-23T03:47:48;19.58;;;13.35;;
57443;SDS011;43289;52.962;6.196;2022-10-23T03:50:16;18.65;;;12.70;;
57443;SDS011;43289;52.962;6.196;2022-10-23T03:52:42;20.42;;;13.13;;
57443;SDS011;43289;52.962;6.196;2022-10-23T03:55:18;20.58;;;11.80;;
57443;SDS011;43289;52.962;6.196;2022-10-23T03:57:44;15.82;;;10.63;;
57443;SDS011;43289;52.962;6.196;2022-10-23T04:00:11;17.55;;;11.35;;
57443;SDS011;43289;52.962;6.196;2022-10-23T04:02:51;16.85;;;12.43;;
57443;SDS011;43289;52.962;6.196;2022-10-23T04:05:17;15.63;;;11.30;;
57443;SDS011;43289;52.962;6.196;2022-10-23T04:07:43;22.08;;;12.00;;
57443;SDS011;43289;52.962;6.196;2022-10-23T04:10:09;23.73;;;14.80;;
57443;SDS011;43289;52.962;6.196;2022-10-23T04:12:35;20.33;;;11.48;;
57443;SDS011;43289;52.962;6.196;2022-10-23T04:15:02;21.48;;;13.30;;
57443;SDS011;43289;52.962;6.196;2022-10-23T04:17:28;24.45;;;12.77;;
57443;SDS011;43289;52.962;6.196;2022-10-23T04:19:54;20.70;;;12.93;;
57443;SDS011;43289;52.962;6.196;2022-10-23T04:22:20;19.92;;;13.00;;
57443;SDS011;43289;52.962;6.196;2022-10-23T04:24:46;22.65;;;13.63;;
57443;SDS011;43289;52.962;6.196;2022-10-23T04:27:12;21.02;;;13.82;;
57443;SDS011;43289;52.962;6.196;2022-10-23T04:29:38;17.77;;;12.38;;
57443;SDS011;43289;52.962;6.196;2022-10-23T04:32:05;17.15;;;11.98;;
57443;SDS011;43289;52.962;6.196;2022-10-23T04:34:31;20.08;;;12.55;;
57443;SDS011;43289;52.962;6.196;2022-10-23T04:36:58;19.42;;;13.35;;
57443;SDS011;43289;52.962;6.196;2022-10-23T04:39:24;17.88;;;13.05;;
57443;SDS011;43289;52.962;6.196;2022-10-23T04:41:50;18.95;;;11.98;;
57443;SDS011;43289;52.962;6.196;2022-10-23T04:44:16;18.35;;;12.43;;
57443;SDS011;43289;52.962;6.196;2022-10-23T04:46:42;18.88;;;12.85;;
57443;SDS011;43289;52.962;6.196;2022-10-23T04:49:11;24.27;;;12.43;;
57443;SDS011;43289;52.962;6.196;2022-10-23T04:51:37;17.80;;;12.98;;
57443;SDS011;43289;52.962;6.196;2022-10-23T04:54:03;22.48;;;13.98;;
57443;SDS011;43289;52.962;6.196;2022-10-23T04:56:29;19.80;;;13.27;;
57443;SDS011;43289;52.962;6.196;2022-10-23T04:58:55;18.70;;;11.80;;
57443;SDS011;43289;52.962;6.196;2022-10-23T05:01:24;20.17;;;13.10;;
57443;SDS011;43289;52.962;6.196;2022-10-23T05:03:50;21.85;;;12.45;;
57443;SDS011;43289;52.962;6.196;2022-10-23T05:06:18;25.70;;;13.52;;
57443;SDS011;43289;52.962;6.196;2022-10-23T05:08:44;21.65;;;12.68;;
57443;SDS011;43289;52.962;6.196;2022-10-23T05:11:10;19.67;;;12.18;;
57443;SDS011;43289;52.962;6.196;2022-10-23T05:13:38;22.45;;;12.82;;
57443;SDS011;43289;52.962;6.196;2022-10-23T05:16:04;26.77;;;15.60;;
57443;SDS011;43289;52.962;6.196;2022-10-23T05:18:34;17.85;;;12.55;;
57443;SDS011;43289;52.962;6.196;2022-10-23T05:21:04;18.55;;;12.50;;
57443;SDS011;43289;52.962;6.196;2022-10-23T05:23:31;20.52;;;12.50;;
57443;SDS011;43289;52.962;6.196;2022-10-23T05:25:58;25.17;;;13.05;;
57443;SDS011;43289;52.962;6.196;2022-10-23T05:28:24;17.02;;;11.75;;
57443;SDS011;43289;52.962;6.196;2022-10-23T05:30:56;26.65;;;13.75;;
57443;SDS011;43289;52.962;6.196;2022-10-23T05:33:41;19.70;;;13.32;;
57443;SDS011;43289;52.962;6.196;2022-10-23T05:36:30;17.90;;;12.35;;
57443;SDS011;43289;52.962;6.196;2022-10-23T05:39:13;22.35;;;12.77;;
57443;SDS011;43289;52.962;6.196;2022-10-23T05:41:39;28.45;;;16.25;;
57443;SDS011;43289;52.962;6.196;2022-10-23T05:44:17;21.23;;;13.40;;
57443;SDS011;43289;52.962;6.196;2022-10-23T05:47:02;32.38;;;16.40;;
57443;SDS011;43289;52.962;6.196;2022-10-23T05:49:40;24.05;;;14.73;;
57443;SDS011;43289;52.962;6.196;2022-10-23T05:52:33;32.13;;;18.40;;
57443;SDS011;43289;52.962;6.196;2022-10-23T05:55:02;32.10;;;16.25;;
57443;SDS011;43289;52.962;6.196;2022-10-23T05:57:49;31.42;;;17.48;;
57443;SDS011;43289;52.962;6.196;2022-10-23T06:00:43;31.00;;;17.30;;
57443;SDS011;43289;52.962;6.196;2022-10-23T06:06:31;30.63;;;17.35;;
57443;SDS011;43289;52.962;6.196;2022-10-23T06:09:04;30.35;;;17.70;;
57443;SDS011;43289;52.962;6.196;2022-10-23T06:11:42;26.98;;;15.93;;
57443;SDS011;43289;52.962;6.196;2022-10-23T06:14:21;24.35;;;14.82;;
57443;SDS011;43289;52.962;6.196;2022-10-23T06:16:48;25.98;;;14.82;;
57443;SDS011;43289;52.962;6.196;2022-10-23T06:22:31;23.52;;;12.48;;
57443;SDS011;43289;52.962;6.196;2022-10-23T06:25:17;25.95;;;14.68;;
57443;SDS011;43289;52.962;6.196;2022-10-23T06:31:28;19.92;;;13.02;;
57443;SDS011;43289;52.962;6.196;2022-10-23T06:34:04;25.75;;;15.23;;
57443;SDS011;43289;52.962;6.196;2022-10-23T06:36:50;30.98;;;15.80;;
57443;SDS011;43289;52.962;6.196;2022-10-23T06:46:24;22.30;;;14.95;;
57443;SDS011;43289;52.962;6.196;2022-10-23T09:34:17;11.40;;;8.25;;
57443;SDS011;43289;52.962;6.196;2022-10-23T09:36:52;15.25;;;8.50;;
57443;SDS011;43289;52.962;6.196;2022-10-23T09:42:29;11.38;;;7.68;;
57443;SDS011;43289;52.962;6.196;2022-10-23T09:44:55;13.77;;;8.30;;
57443;SDS011;43289;52.962;6.196;2022-10-23T09:47:23;14.75;;;8.48;;
57443;SDS011;43289;52.962;6.196;2022-10-23T09:49:52;12.05;;;7.60;;
57443;SDS011;43289;52.962;6.196;2022-10-23T09:52:23;14.20;;;7.80;;
57443;SDS011;43289;52.962;6.196;2022-10-23T10:00:44;10.80;;;6.72;;
57443;SDS011;43289;52.962;6.196;2022-10-23T10:03:18;13.43;;;7.47;;
57443;SDS011;43289;52.962;6.196;2022-10-23T10:05:51;10.18;;;6.03;;
57443;SDS011;43289;52.962;6.196;2022-10-23T10:24:37;13.48;;;6.03;;
57443;SDS011;43289;52.962;6.196;2022-10-23T10:26:36;11.68;;;7.05;;
57443;SDS011;43289;52.962;6.196;2022-10-23T10:34:50;12.93;;;6.05;;
57443;SDS011;43289;52.962;6.196;2022-10-23T10:40:33;12.15;;;6.07;;
57443;SDS011;43289;52.962;6.196;2022-10-23T10:45:48;9.73;;;5.33;;
57443;SDS011;43289;52.962;6.196;2022-10-23T10:51:07;8.85;;;5.68;;
57443;SDS011;43289;52.962;6.196;2022-10-23T10:56:01;8.93;;;4.35;;
57443;SDS011;43289;52.962;6.196;2022-10-23T11:01:00;9.35;;;4.82;;
57443;SDS011;43289;52.962;6.196;2022-10-23T11:03:35;13.60;;;5.07;;
57443;SDS011;43289;52.962;6.196;2022-10-23T11:06:03;11.23;;;4.45;;
57443;SDS011;43289;52.962;6.196;2022-10-23T11:08:33;13.85;;;4.72;;
57443;SDS011;43289;52.962;6.196;2022-10-23T11:11:08;8.30;;;4.65;;
57443;SDS011;43289;52.962;6.196;2022-10-23T11:13:37;9.40;;;4.40;;
57443;SDS011;43289;52.962;6.196;2022-10-23T11:16:07;8.73;;;4.25;;
57443;SDS011;43289;52.962;6.196;2022-10-23T11:18:35;8.45;;;4.32;;
57443;SDS011;43289;52.962;6.196;2022-10-23T11:34:03;7.80;;;4.53;;
57443;SDS011;43289;52.962;6.196;2022-10-23T11:39:18;9.60;;;4.90;;
57443;SDS011;43289;52.962;6.196;2022-10-23T11:44:21;7.35;;;4.05;;
57443;SDS011;43289;52.962;6.196;2022-10-23T11:46:48;8.93;;;4.47;;
57443;SDS011;43289;52.962;6.196;2022-10-23T11:49:24;6.22;;;4.32;;
57443;SDS011;43289;52.962;6.196;2022-10-23T11:52:00;6.43;;;3.83;;
57443;SDS011;43289;52.962;6.196;2022-10-23T11:54:26;8.30;;;4.32;;
57443;SDS011;43289;52.962;6.196;2022-10-23T11:56:53;12.07;;;4.55;;
57443;SDS011;43289;52.962;6.196;2022-10-23T11:59:27;7.10;;;4.40;;
57443;SDS011;43289;52.962;6.196;2022-10-23T12:01:55;9.40;;;4.97;;
57443;SDS011;43289;52.962;6.196;2022-10-23T12:04:23;8.45;;;4.22;;
57443;SDS011;43289;52.962;6.196;2022-10-23T12:06:51;8.10;;;4.25;;
57443;SDS011;43289;52.962;6.196;2022-10-23T12:11:48;12.18;;;4.32;;
57443;SDS011;43289;52.962;6.196;2022-10-23T12:14:28;11.88;;;4.18;;
57443;SDS011;43289;52.962;6.196;2022-10-23T12:16:54;7.90;;;4.47;;
57443;SDS011;43289;52.962;6.196;2022-10-23T12:19:21;7.32;;;3.65;;
57443;SDS011;43289;52.962;6.196;2022-10-23T12:21:53;6.50;;;3.67;;
57443;SDS011;43289;52.962;6.196;2022-10-23T12:32:16;7.63;;;3.58;;
57443;SDS011;43289;52.962;6.196;2022-10-23T12:39:38;8.65;;;3.95;;
57443;SDS011;43289;52.962;6.196;2022-10-23T12:42:26;8.38;;;3.85;;
57443;SDS011;43289;52.962;6.196;2022-10-23T12:45:00;11.43;;;3.92;;
57443;SDS011;43289;52.962;6.196;2022-10-23T12:47:27;7.25;;;3.95;;
57443;SDS011;43289;52.962;6.196;2022-10-23T12:53:18;8.75;;;3.72;;
57443;SDS011;43289;52.962;6.196;2022-10-23T12:56:18;8.52;;;3.72;;
57443;SDS011;43289;52.962;6.196;2022-10-23T12:58:37;7.78;;;3.70;;
57443;SDS011;43289;52.962;6.196;2022-10-23T13:01:32;6.32;;;3.58;;
57443;SDS011;43289;52.962;6.196;2022-10-23T13:06:39;5.90;;;3.53;;
57443;SDS011;43289;52.962;6.196;2022-10-23T13:09:09;6.95;;;4.03;;
57443;SDS011;43289;52.962;6.196;2022-10-23T13:11:39;10.05;;;4.40;;
57443;SDS011;43289;52.962;6.196;2022-10-23T13:14:12;7.65;;;4.07;;
57443;SDS011;43289;52.962;6.196;2022-10-23T13:16:57;7.50;;;3.58;;
57443;SDS011;43289;52.962;6.196;2022-10-23T13:19:23;12.97;;;4.17;;
57443;SDS011;43289;52.962;6.196;2022-10-23T13:21:51;6.38;;;3.40;;
57443;SDS011;43289;52.962;6.196;2022-10-23T13:24:18;11.27;;;3.83;;
57443;SDS011;43289;52.962;6.196;2022-10-23T13:26:45;9.65;;;3.50;;
57443;SDS011;43289;52.962;6.196;2022-10-23T13:29:18;8.07;;;4.10;;
57443;SDS011;43289;52.962;6.196;2022-10-23T13:31:45;9.77;;;3.55;;
57443;SDS011;43289;52.962;6.196;2022-10-23T13:36:48;5.60;;;3.40;;
57443;SDS011;43289;52.962;6.196;2022-10-23T13:39:14;6.78;;;3.45;;
57443;SDS011;43289;52.962;6.196;2022-10-23T13:41:41;6.32;;;3.33;;
57443;SDS011;43289;52.962;6.196;2022-10-23T13:44:09;8.70;;;3.38;;
57443;SDS011;43289;52.962;6.196;2022-10-23T13:46:36;6.57;;;3.20;;
57443;SDS011;43289;52.962;6.196;2022-10-23T13:49:02;7.03;;;2.80;;
57443;SDS011;43289;52.962;6.196;2022-10-23T13:51:28;5.07;;;2.90;;
57443;SDS011;43289;52.962;6.196;2022-10-23T13:53:55;8.50;;;3.03;;
57443;SDS011;43289;52.962;6.196;2022-10-23T13:56:22;6.35;;;2.95;;
57443;SDS011;43289;52.962;6.196;2022-10-23T13:58:48;5.18;;;2.83;;
57443;SDS011;43289;52.962;6.196;2022-10-23T14:01:25;5.97;;;3.13;;
57443;SDS011;43289;52.962;6.196;2022-10-23T14:03:51;4.75;;;2.70;;
57443;SDS011;43289;52.962;6.196;2022-10-23T14:06:18;13.40;;;3.58;;
57443;SDS011;43289;52.962;6.196;2022-10-23T14:08:44;6.00;;;3.05;;
57443;SDS011;43289;52.962;6.196;2022-10-23T14:11:10;7.85;;;3.10;;
57443;SDS011;43289;52.962;6.196;2022-10-23T14:19:55;6.28;;;3.03;;
57443;SDS011;43289;52.962;6.196;2022-10-23T14:25:35;5.75;;;3.28;;
57443;SDS011;43289;52.962;6.196;2022-10-23T14:28:01;5.22;;;2.90;;
57443;SDS011;43289;52.962;6.196;2022-10-23T14:30:27;7.35;;;2.53;;
57443;SDS011;43289;52.962;6.196;2022-10-23T14:32:53;7.97;;;3.33;;
57443;SDS011;43289;52.962;6.196;2022-10-23T14:35:19;7.57;;;2.92;;
57443;SDS011;43289;52.962;6.196;2022-10-23T14:37:45;6.25;;;2.95;;
57443;SDS011;43289;52.962;6.196;2022-10-23T14:40:11;5.90;;;2.92;;
57443;SDS011;43289;52.962;6.196;2022-10-23T14:42:37;5.25;;;2.55;;
57443;SDS011;43289;52.962;6.196;2022-10-23T14:45:03;7.05;;;2.80;;
57443;SDS011;43289;52.962;6.196;2022-10-23T14:47:29;9.38;;;2.65;;
57443;SDS011;43289;52.962;6.196;2022-10-23T14:49:55;12.00;;;2.90;;
57443;SDS011;43289;52.962;6.196;2022-10-23T14:52:22;5.03;;;3.08;;
57443;SDS011;43289;52.962;6.196;2022-10-23T14:54:51;6.53;;;2.67;;
57443;SDS011;43289;52.962;6.196;2022-10-23T14:57:17;6.22;;;2.58;;
57443;SDS011;43289;52.962;6.196;2022-10-23T14:59:45;5.50;;;2.80;;
57443;SDS011;43289;52.962;6.196;2022-10-23T15:02:11;7.47;;;3.17;;
57443;SDS011;43289;52.962;6.196;2022-10-23T15:04:38;5.70;;;2.72;;
57443;SDS011;43289;52.962;6.196;2022-10-23T15:07:04;4.45;;;2.28;;
57443;SDS011;43289;52.962;6.196;2022-10-23T15:09:30;11.82;;;3.88;;
57443;SDS011;43289;52.962;6.196;2022-10-23T15:12:01;5.88;;;3.00;;
57443;SDS011;43289;52.962;6.196;2022-10-23T15:14:27;7.50;;;2.70;;
57443;SDS011;43289;52.962;6.196;2022-10-23T15:16:53;9.65;;;3.10;;
57443;SDS011;43289;52.962;6.196;2022-10-23T15:19:19;5.80;;;2.50;;
57443;SDS011;43289;52.962;6.196;2022-10-23T15:21:45;8.13;;;2.72;;
57443;SDS011;43289;52.962;6.196;2022-10-23T15:24:12;8.88;;;3.58;;
57443;SDS011;43289;52.962;6.196;2022-10-23T15:26:38;7.07;;;2.63;;
57443;SDS011;43289;52.962;6.196;2022-10-23T15:29:06;6.68;;;3.08;;
57443;SDS011;43289;52.962;6.196;2022-10-23T15:34:02;12.68;;;3.67;;
57443;SDS011;43289;52.962;6.196;2022-10-23T15:36:29;6.38;;;2.88;;
57443;SDS011;43289;52.962;6.196;2022-10-23T15:38:55;10.15;;;2.95;;
57443;SDS011;43289;52.962;6.196;2022-10-23T15:41:24;4.85;;;3.08;;
57443;SDS011;43289;52.962;6.196;2022-10-23T15:46:50;7.68;;;2.90;;
57443;SDS011;43289;52.962;6.196;2022-10-23T15:49:17;6.63;;;2.80;;
57443;SDS011;43289;52.962;6.196;2022-10-23T15:51:43;4.85;;;2.63;;
57443;SDS011;43289;52.962;6.196;2022-10-23T15:54:10;7.05;;;2.60;;
57443;SDS011;43289;52.962;6.196;2022-10-23T15:56:40;4.65;;;2.78;;
57443;SDS011;43289;52.962;6.196;2022-10-23T15:59:06;6.18;;;2.72;;
57443;SDS011;43289;52.962;6.196;2022-10-23T16:01:32;6.65;;;2.88;;
57443;SDS011;43289;52.962;6.196;2022-10-23T16:03:58;13.63;;;2.80;;
57443;SDS011;43289;52.962;6.196;2022-10-23T16:06:24;7.95;;;2.80;;
57443;SDS011;43289;52.962;6.196;2022-10-23T16:08:50;5.07;;;2.40;;
57443;SDS011;43289;52.962;6.196;2022-10-23T16:11:20;6.45;;;2.83;;
57443;SDS011;43289;52.962;6.196;2022-10-23T16:13:47;4.75;;;2.95;;
57443;SDS011;43289;52.962;6.196;2022-10-23T16:16:13;6.40;;;2.65;;
57443;SDS011;43289;52.962;6.196;2022-10-23T16:18:39;5.95;;;2.67;;
57443;SDS011;43289;52.962;6.196;2022-10-23T16:21:10;7.40;;;2.75;;
57443;SDS011;43289;52.962;6.196;2022-10-23T16:23:40;6.00;;;2.70;;
57443;SDS011;43289;52.962;6.196;2022-10-23T16:26:06;6.13;;;2.63;;
57443;SDS011;43289;52.962;6.196;2022-10-23T16:28:32;5.78;;;2.30;;
57443;SDS011;43289;52.962;6.196;2022-10-23T16:30:58;6.10;;;2.70;;
57443;SDS011;43289;52.962;6.196;2022-10-23T16:33:24;5.47;;;2.30;;
57443;SDS011;43289;52.962;6.196;2022-10-23T16:35:53;9.23;;;2.72;;
57443;SDS011;43289;52.962;6.196;2022-10-23T16:38:19;7.80;;;2.80;;
57443;SDS011;43289;52.962;6.196;2022-10-23T16:40:49;5.38;;;2.50;;
57443;SDS011;43289;52.962;6.196;2022-10-23T16:43:15;8.30;;;2.72;;
57443;SDS011;43289;52.962;6.196;2022-10-23T16:45:41;7.10;;;2.92;;
57443;SDS011;43289;52.962;6.196;2022-10-23T16:48:07;7.07;;;2.70;;
57443;SDS011;43289;52.962;6.196;2022-10-23T16:50:36;5.07;;;2.72;;
57443;SDS011;43289;52.962;6.196;2022-10-23T16:53:02;7.50;;;3.17;;
57443;SDS011;43289;52.962;6.196;2022-10-23T16:55:28;6.43;;;3.20;;
57443;SDS011;43289;52.962;6.196;2022-10-23T16:57:54;7.05;;;2.78;;
57443;SDS011;43289;52.962;6.196;2022-10-23T17:00:21;10.55;;;3.00;;
57443;SDS011;43289;52.962;6.196;2022-10-23T17:02:48;6.82;;;2.78;;
57443;SDS011;43289;52.962;6.196;2022-10-23T17:05:14;7.72;;;4.00;;
57443;SDS011;43289;52.962;6.196;2022-10-23T17:07:40;4.95;;;2.33;;
57443;SDS011;43289;52.962;6.196;2022-10-23T17:10:06;7.50;;;3.20;;
57443;SDS011;43289;52.962;6.196;2022-10-23T17:12:32;6.00;;;2.55;;
57443;SDS011;43289;52.962;6.196;2022-10-23T17:14:58;6.20;;;2.75;;
57443;SDS011;43289;52.962;6.196;2022-10-23T17:17:24;11.32;;;2.90;;
57443;SDS011;43289;52.962;6.196;2022-10-23T17:19:50;6.10;;;2.85;;
57443;SDS011;43289;52.962;6.196;2022-10-23T17:22:16;9.98;;;3.05;;
57443;SDS011;43289;52.962;6.196;2022-10-23T17:24:42;9.20;;;2.70;;
57443;SDS011;43289;52.962;6.196;2022-10-23T17:27:08;7.05;;;3.13;;
57443;SDS011;43289;52.962;6.196;2022-10-23T17:29:34;4.93;;;2.95;;
57443;SDS011;43289;52.962;6.196;2022-10-23T17:32:01;4.45;;;3.17;;
57443;SDS011;43289;52.962;6.196;2022-10-23T17:34:27;8.23;;;2.72;;
57443;SDS011;43289;52.962;6.196;2022-10-23T17:36:53;7.47;;;2.80;;
57443;SDS011;43289;52.962;6.196;2022-10-23T17:39:20;6.57;;;2.50;;
57443;SDS011;43289;52.962;6.196;2022-10-23T17:41:47;9.88;;;3.30;;
57443;SDS011;43289;52.962;6.196;2022-10-23T17:44:13;6.80;;;3.80;;
57443;SDS011;43289;52.962;6.196;2022-10-23T17:46:39;7.63;;;3.25;;
57443;SDS011;43289;52.962;6.196;2022-10-23T17:49:05;6.13;;;2.95;;
57443;SDS011;43289;52.962;6.196;2022-10-23T17:51:32;6.35;;;3.13;;
57443;SDS011;43289;52.962;6.196;2022-10-23T17:53:59;6.60;;;3.15;;
57443;SDS011;43289;52.962;6.196;2022-10-23T17:56:27;6.55;;;3.72;;
57443;SDS011;43289;52.962;6.196;2022-10-23T17:58:54;9.27;;;3.25;;
57443;SDS011;43289;52.962;6.196;2022-10-23T18:01:22;7.55;;;3.10;;
57443;SDS011;43289;52.962;6.196;2022-10-23T18:03:49;5.10;;;3.22;;
57443;SDS011;43289;52.962;6.196;2022-10-23T18:06:16;7.38;;;3.15;;
57443;SDS011;43289;52.962;6.196;2022-10-23T18:08:43;6.63;;;3.55;;
57443;SDS011;43289;52.962;6.196;2022-10-23T18:11:16;5.95;;;3.40;;
57443;SDS011;43289;52.962;6.196;2022-10-23T18:13:42;8.13;;;3.65;;
57443;SDS011;43289;52.962;6.196;2022-10-23T18:16:08;7.65;;;3.17;;
57443;SDS011;43289;52.962;6.196;2022-10-23T18:18:35;6.50;;;2.85;;
57443;SDS011;43289;52.962;6.196;2022-10-23T18:21:02;6.32;;;3.55;;
57443;SDS011;43289;52.962;6.196;2022-10-23T18:23:28;7.57;;;3.50;;
57443;SDS011;43289;52.962;6.196;2022-10-23T18:25:55;5.68;;;3.22;;
57443;SDS011;43289;52.962;6.196;2022-10-23T18:28:21;7.85;;;3.45;;
57443;SDS011;43289;52.962;6.196;2022-10-23T18:30:47;6.35;;;3.58;;
57443;SDS011;43289;52.962;6.196;2022-10-23T18:33:14;6.03;;;3.45;;
57443;SDS011;43289;52.962;6.196;2022-10-23T18:35:40;6.65;;;3.33;;
57443;SDS011;43289;52.962;6.196;2022-10-23T18:38:06;8.00;;;3.45;;
57443;SDS011;43289;52.962;6.196;2022-10-23T18:43:56;7.40;;;3.22;;
57443;SDS011;43289;52.962;6.196;2022-10-23T18:46:22;7.03;;;3.53;;
57443;SDS011;43289;52.962;6.196;2022-10-23T18:48:48;9.57;;;3.65;;
57443;SDS011;43289;52.962;6.196;2022-10-23T18:51:19;6.00;;;3.60;;
57443;SDS011;43289;52.962;6.196;2022-10-23T18:53:45;6.78;;;3.60;;
57443;SDS011;43289;52.962;6.196;2022-10-23T18:56:15;6.47;;;3.53;;
57443;SDS011;43289;52.962;6.196;2022-10-23T18:58:46;6.13;;;2.95;;
57443;SDS011;43289;52.962;6.196;2022-10-23T19:01:12;18.73;;;4.50;;
57443;SDS011;43289;52.962;6.196;2022-10-23T19:03:38;11.65;;;3.47;;
57443;SDS011;43289;52.962;6.196;2022-10-23T19:06:05;8.82;;;3.10;;
57443;SDS011;43289;52.962;6.196;2022-10-23T19:08:38;9.95;;;3.38;;
57443;SDS011;43289;52.962;6.196;2022-10-23T19:11:07;10.18;;;3.15;;
57443;SDS011;43289;52.962;6.196;2022-10-23T19:13:33;12.02;;;3.75;;
57443;SDS011;43289;52.962;6.196;2022-10-23T19:16:05;13.38;;;3.17;;
57443;SDS011;43289;52.962;6.196;2022-10-23T19:18:32;8.23;;;2.90;;
57443;SDS011;43289;52.962;6.196;2022-10-23T19:21:00;5.88;;;3.63;;
57443;SDS011;43289;52.962;6.196;2022-10-23T19:23:29;8.30;;;2.97;;
57443;SDS011;43289;52.962;6.196;2022-10-23T19:25:56;6.68;;;3.72;;
57443;SDS011;43289;52.962;6.196;2022-10-23T19:28:22;8.27;;;3.80;;
57443;SDS011;43289;52.962;6.196;2022-10-23T19:30:48;6.53;;;3.35;;
57443;SDS011;43289;52.962;6.196;2022-10-23T19:33:14;6.80;;;3.00;;
57443;SDS011;43289;52.962;6.196;2022-10-23T19:35:40;6.75;;;3.00;;
57443;SDS011;43289;52.962;6.196;2022-10-23T19:38:09;7.88;;;3.30;;
57443;SDS011;43289;52.962;6.196;2022-10-23T19:40:35;5.55;;;3.30;;
57443;SDS011;43289;52.962;6.196;2022-10-23T19:43:01;7.78;;;3.03;;
57443;SDS011;43289;52.962;6.196;2022-10-23T19:45:27;6.65;;;3.03;;
57443;SDS011;43289;52.962;6.196;2022-10-23T19:47:53;7.05;;;3.33;;
57443;SDS011;43289;52.962;6.196;2022-10-23T19:50:19;7.68;;;3.13;;
57443;SDS011;43289;52.962;6.196;2022-10-23T19:52:45;5.93;;;3.00;;
57443;SDS011;43289;52.962;6.196;2022-10-23T19:55:11;8.38;;;3.58;;
57443;SDS011;43289;52.962;6.196;2022-10-23T19:57:37;8.38;;;3.15;;
57443;SDS011;43289;52.962;6.196;2022-10-23T20:00:04;8.75;;;2.67;;
57443;SDS011;43289;52.962;6.196;2022-10-23T20:02:34;6.35;;;3.00;;
57443;SDS011;43289;52.962;6.196;2022-10-23T20:05:01;6.13;;;2.70;;
57443;SDS011;43289;52.962;6.196;2022-10-23T20:07:27;6.97;;;2.85;;
57443;SDS011;43289;52.962;6.196;2022-10-23T20:09:53;6.88;;;3.15;;
57443;SDS011;43289;52.962;6.196;2022-10-23T20:12:19;5.63;;;3.13;;
57443;SDS011;43289;52.962;6.196;2022-10-23T20:14:45;8.15;;;3.38;;
57443;SDS011;43289;52.962;6.196;2022-10-23T20:17:11;6.35;;;2.95;;
57443;SDS011;43289;52.962;6.196;2022-10-23T20:19:39;4.90;;;2.80;;
57443;SDS011;43289;52.962;6.196;2022-10-23T20:22:05;5.70;;;3.00;;
57443;SDS011;43289;52.962;6.196;2022-10-23T20:24:31;4.45;;;2.53;;
57443;SDS011;43289;52.962;6.196;2022-10-23T20:27:00;7.05;;;2.97;;
57443;SDS011;43289;52.962;6.196;2022-10-23T20:29:26;7.35;;;3.60;;
57443;SDS011;43289;52.962;6.196;2022-10-23T20:31:55;7.35;;;2.78;;
57443;SDS011;43289;52.962;6.196;2022-10-23T20:34:21;6.93;;;3.45;;
57443;SDS011;43289;52.962;6.196;2022-10-23T20:36:47;6.20;;;2.92;;
57443;SDS011;43289;52.962;6.196;2022-10-23T20:39:15;5.72;;;3.33;;
57443;SDS011;43289;52.962;6.196;2022-10-23T20:41:41;6.85;;;2.83;;
57443;SDS011;43289;52.962;6.196;2022-10-23T20:44:10;10.45;;;3.63;;
57443;SDS011;43289;52.962;6.196;2022-10-23T20:46:36;8.45;;;4.40;;
57443;SDS011;43289;52.962;6.196;2022-10-23T20:49:03;7.97;;;3.35;;
57443;SDS011;43289;52.962;6.196;2022-10-23T20:51:31;5.95;;;3.33;;
57443;SDS011;43289;52.962;6.196;2022-10-23T20:53:57;8.00;;;3.65;;
57443;SDS011;43289;52.962;6.196;2022-10-23T20:56:28;11.50;;;3.40;;
57443;SDS011;43289;52.962;6.196;2022-10-23T20:58:59;9.55;;;4.22;;
57443;SDS011;43289;52.962;6.196;2022-10-23T21:01:25;9.40;;;3.75;;
57443;SDS011;43289;52.962;6.196;2022-10-23T21:03:52;11.73;;;3.90;;
57443;SDS011;43289;52.962;6.196;2022-10-23T21:06:20;9.15;;;3.47;;
57443;SDS011;43289;52.962;6.196;2022-10-23T21:08:46;7.53;;;4.00;;
57443;SDS011;43289;52.962;6.196;2022-10-23T21:11:13;9.77;;;3.75;;
57443;SDS011;43289;52.962;6.196;2022-10-23T21:13:40;8.52;;;3.90;;
57443;SDS011;43289;52.962;6.196;2022-10-23T21:16:10;10.98;;;4.63;;
57443;SDS011;43289;52.962;6.196;2022-10-23T21:18:36;6.13;;;3.22;;
57443;SDS011;43289;52.962;6.196;2022-10-23T21:21:02;7.60;;;4.10;;
57443;SDS011;43289;52.962;6.196;2022-10-23T21:23:28;7.95;;;4.15;;
57443;SDS011;43289;52.962;6.196;2022-10-23T21:25:54;6.30;;;3.88;;
57443;SDS011;43289;52.962;6.196;2022-10-23T21:28:20;7.57;;;3.83;;
57443;SDS011;43289;52.962;6.196;2022-10-23T21:30:46;7.97;;;3.35;;
57443;SDS011;43289;52.962;6.196;2022-10-23T21:33:12;8.80;;;3.65;;
57443;SDS011;43289;52.962;6.196;2022-10-23T21:35:38;7.60;;;4.32;;
57443;SDS011;43289;52.962;6.196;2022-10-23T21:38:04;7.50;;;3.53;;
57443;SDS011;43289;52.962;6.196;2022-10-23T21:40:30;9.20;;;4.07;;
57443;SDS011;43289;52.962;6.196;2022-10-23T21:42:57;9.20;;;3.67;;
57443;SDS011;43289;52.962;6.196;2022-10-23T21:45:23;9.43;;;4.28;;
57443;SDS011;43289;52.962;6.196;2022-10-23T21:47:49;6.15;;;3.20;;
57443;SDS011;43289;52.962;6.196;2022-10-23T21:50:15;9.82;;;3.97;;
57443;SDS011;43289;52.962;6.196;2022-10-23T21:52:41;5.95;;;3.47;;
57443;SDS011;43289;52.962;6.196;2022-10-23T21:55:07;9.82;;;4.63;;
57443;SDS011;43289;52.962;6.196;2022-10-23T22:00:56;9.25;;;3.78;;
57443;SDS011;43289;52.962;6.196;2022-10-23T22:03:22;7.65;;;3.30;;
57443;SDS011;43289;52.962;6.196;2022-10-23T22:05:48;7.03;;;2.88;;
57443;SDS011;43289;52.962;6.196;2022-10-23T22:08:14;6.90;;;3.55;;
57443;SDS011;43289;52.962;6.196;2022-10-23T22:10:40;6.70;;;3.40;;
57443;SDS011;43289;52.962;6.196;2022-10-23T22:13:06;9.95;;;3.15;;
57443;SDS011;43289;52.962;6.196;2022-10-23T22:15:32;8.25;;;3.33;;
57443;SDS011;43289;52.962;6.196;2022-10-23T22:17:58;7.05;;;3.35;;
57443;SDS011;43289;52.962;6.196;2022-10-23T22:20:25;8.02;;;3.25;;
57443;SDS011;43289;52.962;6.196;2022-10-23T22:22:51;6.13;;;2.97;;
57443;SDS011;43289;52.962;6.196;2022-10-23T22:28:46;5.80;;;2.80;;
57443;SDS011;43289;52.962;6.196;2022-10-23T22:31:16;6.70;;;3.03;;
57443;SDS011;43289;52.962;6.196;2022-10-23T22:33:43;7.38;;;3.33;;
57443;SDS011;43289;52.962;6.196;2022-10-23T22:36:09;7.50;;;2.72;;
57443;SDS011;43289;52.962;6.196;2022-10-23T22:38:35;8.65;;;3.08;;
57443;SDS011;43289;52.962;6.196;2022-10-23T22:41:02;6.25;;;3.38;;
57443;SDS011;43289;52.962;6.196;2022-10-23T22:43:28;5.05;;;3.05;;
57443;SDS011;43289;52.962;6.196;2022-10-23T22:46:04;6.65;;;2.40;;
57443;SDS011;43289;52.962;6.196;2022-10-23T22:48:31;5.45;;;2.72;;
57443;SDS011;43289;52.962;6.196;2022-10-23T22:50:57;7.22;;;3.30;;
57443;SDS011;43289;52.962;6.196;2022-10-23T22:53:23;6.72;;;2.85;;
57443;SDS011;43289;52.962;6.196;2022-10-23T22:55:49;8.52;;;2.92;;
57443;SDS011;43289;52.962;6.196;2022-10-23T22:58:15;6.57;;;2.63;;
57443;SDS011;43289;52.962;6.196;2022-10-23T23:00:41;6.05;;;2.70;;
57443;SDS011;43289;52.962;6.196;2022-10-23T23:03:07;5.82;;;2.80;;
57443;SDS011;43289;52.962;6.196;2022-10-23T23:05:33;6.25;;;3.15;;